Time,TemperatureF,DewpointF,PressureIn,WindDirection,WindDirectionDegrees,WindSpeedMPH,WindSpeedGustMPH,Humidity,HourlyPrecipIn,Conditions,Clouds,dailyrainin,SolarRadiationWatts/m^2,SoftwareType,DateUTC
2013-06-23 00:01:00,66.7,66.7,29.96,South,175,8.1,8.1,100,0.20,-RA,,0.04,0.0,WeatherDisplay:10.37,2013-06-23 05:01:00,
2013-06-23 00:06:00,66.7,66.7,29.96,SSW,199,3.5,0.0,100,0.20,-RA,,0.04,0.0,WeatherDisplay:10.37,2013-06-23 05:06:00,
2013-06-23 00:11:00,66.7,66.7,29.96,SSE,163,4.6,0.0,100,0.20,-RA,,0.04,0.0,WeatherDisplay:10.37,2013-06-23 05:11:00,
2013-06-23 00:16:00,66.6,66.6,29.93,SSW,204,2.3,0.0,100,0.20,-RA,,0.04,0.0,WeatherDisplay:10.37,2013-06-23 05:16:00,
2013-06-23 00:21:00,66.6,66.6,29.93,SSE,147,3.5,0.0,100,0.16,-RA,,0.04,0.0,WeatherDisplay:10.37,2013-06-23 05:21:00,
2013-06-23 00:26:00,66.6,66.6,29.93,SW,234,0.0,0.0,100,0.16,-RA,,0.04,0.0,WeatherDisplay:10.37,2013-06-23 05:26:00,
2013-06-23 00:31:00,66.6,66.6,29.90,SSW,203,2.3,0.0,100,0.20,-RA,,0.08,0.0,WeatherDisplay:10.37,2013-06-23 05:31:00,
2013-06-23 00:36:00,66.6,66.6,29.90,SSE,163,3.5,3.5,100,0.12,-RA,,0.08,0.0,WeatherDisplay:10.37,2013-06-23 05:36:00,
2013-06-23 00:41:00,66.6,66.6,29.90,SSW,208,9.2,9.2,100,0.12,-RA,,0.08,0.0,WeatherDisplay:10.37,2013-06-23 05:41:00,
2013-06-23 00:46:00,66.6,66.6,29.93,WSW,246,4.6,4.6,100,0.08,-RA,,0.08,0.0,WeatherDisplay:10.37,2013-06-23 05:46:00,
2013-06-23 00:51:00,66.6,66.6,29.93,SSW,201,5.8,5.8,100,0.08,-RA,,0.08,0.0,WeatherDisplay:10.37,2013-06-23 05:51:00,
2013-06-23 00:56:00,66.6,66.6,29.93,SW,234,5.8,5.8,100,0.08,-RA,,0.08,0.0,WeatherDisplay:10.37,2013-06-23 05:56:00,
2013-06-23 01:01:00,66.7,66.7,29.93,SSW,206,6.9,6.9,100,0.12,-RA,,0.12,0.0,WeatherDisplay:10.37,2013-06-23 06:01:00,
2013-06-23 01:06:00,66.6,66.6,29.93,SW,228,6.9,6.9,100,0.08,-RA,,0.12,0.0,WeatherDisplay:10.37,2013-06-23 06:06:00,
2013-06-23 01:11:00,66.7,66.7,29.93,WSW,243,9.2,9.2,100,0.08,-RA,,0.12,0.0,WeatherDisplay:10.37,2013-06-23 06:11:00,
2013-06-23 01:16:00,66.7,66.7,29.93,SSW,210,5.8,5.8,100,0.08,-RA,,0.12,0.0,WeatherDisplay:10.37,2013-06-23 06:16:00,
2013-06-23 01:21:00,66.7,66.7,29.93,SSW,208,8.1,8.1,100,0.08,-RA,,0.12,0.0,WeatherDisplay:10.37,2013-06-23 06:21:00,
2013-06-23 01:26:00,66.6,66.6,29.93,South,172,9.2,9.2,100,0.08,-RA,,0.12,0.0,WeatherDisplay:10.37,2013-06-23 06:26:00,
2013-06-23 01:31:00,66.6,66.6,29.93,WSW,244,8.1,8.1,100,0.04,-RA,,0.12,0.0,WeatherDisplay:10.37,2013-06-23 06:31:00,
2013-06-23 01:36:00,66.6,66.6,29.93,SE,146,8.1,8.1,100,0.04,-RA,,0.16,0.0,WeatherDisplay:10.37,2013-06-23 06:36:00,
2013-06-23 01:41:00,66.4,66.4,29.93,South,188,5.8,0.0,100,0.08,-RA,,0.16,0.0,WeatherDisplay:10.37,2013-06-23 06:41:00,
2013-06-23 01:46:00,66.4,66.4,29.90,WSW,254,2.3,2.7,100,0.08,-RA,,0.16,0.0,WeatherDisplay:10.37,2013-06-23 06:46:00,
2013-06-23 01:51:00,66.2,66.2,29.90,SSW,203,8.1,8.1,100,0.08,-RA,,0.16,0.0,WeatherDisplay:10.37,2013-06-23 06:51:00,
2013-06-23 01:56:00,66.2,66.2,29.90,SSW,196,8.1,8.1,100,0.08,-RA,,0.16,0.0,WeatherDisplay:10.37,2013-06-23 06:56:00,
2013-06-23 02:01:00,66.0,66.0,29.90,WSW,237,5.8,5.8,100,0.04,-RA,,0.16,0.0,WeatherDisplay:10.37,2013-06-23 07:01:00,
2013-06-23 02:06:00,66.0,66.0,29.90,SW,214,5.8,5.8,100,0.04,CLR,,0.16,0.0,WeatherDisplay:10.37,2013-06-23 07:06:00,
2013-06-23 02:11:00,66.0,66.0,29.90,SW,227,9.2,9.2,100,0.04,CLR,,0.16,0.0,WeatherDisplay:10.37,2013-06-23 07:11:00,
2013-06-23 02:16:00,66.0,66.0,29.93,WSW,242,13.8,13.8,100,0.04,CLR,,0.16,0.0,WeatherDisplay:10.37,2013-06-23 07:16:00,
2013-06-23 02:21:00,66.0,66.0,29.93,South,183,6.9,6.9,100,0.04,CLR,,0.16,0.0,WeatherDisplay:10.37,2013-06-23 07:21:00,
2013-06-23 02:26:00,65.8,65.8,29.93,WSW,247,9.2,9.2,100,0.04,CLR,,0.16,0.0,WeatherDisplay:10.37,2013-06-23 07:26:00,
2013-06-23 02:31:00,65.8,65.8,29.93,SSW,196,8.1,8.1,100,0.04,CLR,,0.16,0.0,WeatherDisplay:10.37,2013-06-23 07:31:00,
2013-06-23 02:36:00,65.7,65.7,29.93,SSW,213,10.4,10.4,100,0.04,CLR,,0.16,0.0,WeatherDisplay:10.37,2013-06-23 07:36:00,
2013-06-23 02:41:00,65.7,65.7,29.93,WSW,251,11.5,11.5,100,0.00,CLR,,0.16,0.0,WeatherDisplay:10.37,2013-06-23 07:41:00,
2013-06-23 02:46:00,65.5,65.5,29.93,SW,216,8.1,8.1,100,0.00,CLR,,0.16,0.0,WeatherDisplay:10.37,2013-06-23 07:46:00,
2013-06-23 02:51:00,65.5,65.5,29.93,SSW,204,10.4,10.4,100,0.00,CLR,,0.16,0.0,WeatherDisplay:10.37,2013-06-23 07:51:00,
2013-06-23 02:56:00,65.5,65.5,29.93,SSW,198,8.1,8.1,100,0.00,CLR,,0.16,0.0,WeatherDisplay:10.37,2013-06-23 07:56:00,
2013-06-23 03:01:00,65.3,65.3,29.93,SW,229,5.8,5.8,100,0.00,CLR,,0.16,0.0,WeatherDisplay:10.37,2013-06-23 08:01:00,
2013-06-23 03:06:00,65.3,65.3,29.93,SW,227,6.9,6.9,100,0.00,-RA,,0.16,0.0,WeatherDisplay:10.37,2013-06-23 08:06:00,
2013-06-23 03:11:00,65.3,65.3,29.93,SSE,164,5.8,0.0,100,0.00,-RA,,0.16,0.0,WeatherDisplay:10.37,2013-06-23 08:11:00,
2013-06-23 03:16:00,65.1,65.1,29.90,SW,216,6.9,6.9,100,0.00,-RA,,0.16,0.0,WeatherDisplay:10.37,2013-06-23 08:16:00,
2013-06-23 03:21:00,65.1,65.1,29.90,South,176,5.8,5.8,100,0.00,-RA,,0.16,0.0,WeatherDisplay:10.37,2013-06-23 08:21:00,
2013-06-23 03:26:00,65.1,65.1,29.90,SW,236,5.8,0.0,100,0.00,-RA,,0.16,0.0,WeatherDisplay:10.37,2013-06-23 08:26:00,
2013-06-23 03:31:00,64.9,64.9,29.90,West,260,4.6,0.0,100,0.00,-RA,,0.16,0.0,WeatherDisplay:10.37,2013-06-23 08:31:00,
2013-06-23 03:36:00,64.9,64.9,29.90,SSW,207,4.6,0.0,100,0.00,-RA,,0.16,0.0,WeatherDisplay:10.37,2013-06-23 08:36:00,
2013-06-23 03:41:00,64.9,64.9,29.90,SSW,209,0.0,0.0,100,0.00,-RA,,0.16,0.0,WeatherDisplay:10.37,2013-06-23 08:41:00,
2013-06-23 03:46:00,64.9,64.9,29.90,SW,220,3.5,3.5,100,0.00,-RA,,0.16,0.0,WeatherDisplay:10.37,2013-06-23 08:46:00,
2013-06-23 03:51:00,64.9,64.9,29.90,SSE,165,0.0,0.0,100,0.00,-RA,,0.16,0.0,WeatherDisplay:10.37,2013-06-23 08:51:00,
2013-06-23 03:56:00,64.9,64.9,29.90,SSW,210,3.5,0.0,100,0.00,-RA,,0.16,0.0,WeatherDisplay:10.37,2013-06-23 08:56:00,
2013-06-23 04:01:00,64.9,64.9,29.87,SW,225,5.8,5.8,100,0.00,-RA,,0.16,0.0,WeatherDisplay:10.37,2013-06-23 09:01:00,
2013-06-23 04:06:00,65.1,65.1,29.87,WSW,239,0.0,0.0,100,0.00,-RA,,0.16,0.0,WeatherDisplay:10.37,2013-06-23 09:06:00,
2013-06-23 04:11:00,65.1,65.1,29.87,WSW,239,0.0,0.0,100,0.00,-RA,,0.16,0.0,WeatherDisplay:10.37,2013-06-23 09:11:00,
2013-06-23 04:16:00,65.1,65.1,29.90,WSW,239,0.0,0.0,100,0.00,-RA,,0.16,0.0,WeatherDisplay:10.37,2013-06-23 09:16:00,
2013-06-23 04:21:00,65.1,65.1,29.90,WSW,239,0.0,0.0,100,0.00,-RA,,0.16,0.0,WeatherDisplay:10.37,2013-06-23 09:21:00,
2013-06-23 04:26:00,65.1,65.1,29.90,WSW,239,0.0,0.0,100,0.00,-RA,,0.16,0.0,WeatherDisplay:10.37,2013-06-23 09:26:00,
2013-06-23 04:31:00,65.1,65.1,29.90,WSW,239,0.0,0.0,100,0.00,-RA,,0.16,0.0,WeatherDisplay:10.37,2013-06-23 09:31:00,
2013-06-23 04:36:00,64.9,64.9,29.90,WSW,239,0.0,0.0,100,0.00,-RA,,0.16,0.0,WeatherDisplay:10.37,2013-06-23 09:36:00,
2013-06-23 04:41:00,64.9,64.9,29.90,WSW,239,0.0,0.0,100,0.00,-RA,,0.16,0.0,WeatherDisplay:10.37,2013-06-23 09:41:00,
2013-06-23 04:46:00,64.9,64.9,29.90,WSW,239,0.0,0.0,100,0.00,-RA,,0.16,0.0,WeatherDisplay:10.37,2013-06-23 09:46:00,
2013-06-23 04:51:00,64.9,64.9,29.90,WSW,239,0.0,0.0,100,0.00,-RA,,0.16,0.0,WeatherDisplay:10.37,2013-06-23 09:51:00,
2013-06-23 04:56:00,64.9,64.9,29.90,WSW,239,0.0,0.0,100,0.00,-RA,,0.16,0.0,WeatherDisplay:10.37,2013-06-23 09:56:00,
2013-06-23 05:01:00,64.9,64.9,29.90,SSW,194,0.0,0.0,100,0.00,-RA,,0.16,0.0,WeatherDisplay:10.37,2013-06-23 10:01:00,
2013-06-23 05:06:00,64.8,64.8,29.90,South,182,0.0,0.0,100,0.00,-RA,,0.16,0.0,WeatherDisplay:10.37,2013-06-23 10:06:00,
2013-06-23 05:11:00,64.8,64.8,29.90,South,182,0.0,0.0,100,0.00,-RA,,0.16,0.0,WeatherDisplay:10.37,2013-06-23 10:11:00,
2013-06-23 05:16:00,64.8,64.8,29.87,SW,225,2.3,0.0,100,0.00,-RA,,0.16,0.0,WeatherDisplay:10.37,2013-06-23 10:16:00,
2013-06-23 05:21:00,64.8,64.8,29.87,South,181,5.8,0.0,100,0.00,-RA,,0.16,0.0,WeatherDisplay:10.37,2013-06-23 10:21:00,
2013-06-23 05:26:00,64.8,64.8,29.87,South,173,5.8,5.8,100,0.00,-RA,,0.16,0.0,WeatherDisplay:10.37,2013-06-23 10:26:00,
2013-06-23 05:31:00,64.8,64.8,29.84,South,176,0.0,0.0,100,0.00,-RA,,0.16,0.0,WeatherDisplay:10.37,2013-06-23 10:31:00,
2013-06-23 05:36:00,64.9,64.9,29.84,South,191,8.1,8.1,100,0.00,-RA,,0.16,0.0,WeatherDisplay:10.37,2013-06-23 10:36:00,
2013-06-23 05:41:00,64.9,64.9,29.84,South,180,5.8,5.8,100,0.00,-RA,,0.16,0.0,WeatherDisplay:10.37,2013-06-23 10:41:00,
2013-06-23 05:46:00,64.9,64.9,29.81,SSW,197,0.0,0.0,100,0.00,-RA,,0.16,0.0,WeatherDisplay:10.37,2013-06-23 10:46:00,
2013-06-23 05:51:00,64.9,64.9,29.81,SSW,199,0.0,0.0,100,0.00,-RA,,0.16,0.0,WeatherDisplay:10.37,2013-06-23 10:51:00,
2013-06-23 05:56:00,64.9,64.9,29.81,SW,232,2.3,0.0,100,0.00,-RA,,0.16,0.0,WeatherDisplay:10.37,2013-06-23 10:56:00,
2013-06-23 06:01:00,65.1,65.1,29.81,SSW,193,0.0,0.0,100,0.00,-RA,,0.16,0.0,WeatherDisplay:10.37,2013-06-23 11:01:00,
2013-06-23 06:06:00,65.3,65.3,29.81,SW,217,0.0,0.0,100,0.00,FEW,,0.16,0.0,WeatherDisplay:10.37,2013-06-23 11:06:00,
2013-06-23 06:11:00,65.3,65.3,29.81,NNW,342,0.0,0.0,100,0.00,FEW,,0.16,0.0,WeatherDisplay:10.37,2013-06-23 11:11:00,
2013-06-23 06:16:00,65.5,65.5,29.84,NE,36,4.6,4.6,100,0.00,FEW,,0.16,0.0,WeatherDisplay:10.37,2013-06-23 11:16:00,
2013-06-23 06:21:00,65.7,65.7,29.84,NNE,16,5.8,5.8,100,0.00,FEW,,0.16,0.0,WeatherDisplay:10.37,2013-06-23 11:21:00,
2013-06-23 06:26:00,65.7,65.7,29.84,NE,42,5.8,5.8,100,0.00,FEW,,0.16,0.0,WeatherDisplay:10.37,2013-06-23 11:26:00,
2013-06-23 06:31:00,65.7,65.7,29.84,ENE,57,5.8,5.8,100,0.00,FEW,,0.16,0.0,WeatherDisplay:10.37,2013-06-23 11:31:00,
2013-06-23 06:36:00,65.7,65.7,29.84,NE,43,6.9,6.9,100,0.00,FEW,,0.16,0.0,WeatherDisplay:10.37,2013-06-23 11:36:00,
2013-06-23 06:41:00,65.8,65.8,29.84,NE,50,0.0,0.0,100,0.00,FEW,,0.16,0.0,WeatherDisplay:10.37,2013-06-23 11:41:00,
2013-06-23 06:46:00,65.8,65.8,29.84,NE,44,2.3,0.0,100,0.00,FEW,,0.16,0.0,WeatherDisplay:10.37,2013-06-23 11:46:00,
2013-06-23 06:51:00,65.8,65.8,29.84,NNE,27,3.5,3.5,100,0.00,FEW,,0.16,0.0,WeatherDisplay:10.37,2013-06-23 11:51:00,
2013-06-23 06:56:00,65.8,65.8,29.84,NNW,344,0.0,0.0,100,0.00,FEW,,0.16,0.0,WeatherDisplay:10.37,2013-06-23 11:56:00,
2013-06-23 07:01:00,65.8,65.8,29.87,SSW,212,0.0,0.0,100,0.00,FEW,,0.16,0.0,WeatherDisplay:10.37,2013-06-23 12:01:00,
2013-06-23 07:06:00,66.0,66.0,29.87,SSW,212,0.0,0.0,100,0.00,CLR,,0.16,0.0,WeatherDisplay:10.37,2013-06-23 12:06:00,
2013-06-23 07:11:00,66.6,66.6,29.87,ESE,108,0.0,0.0,100,0.00,CLR,,0.16,0.0,WeatherDisplay:10.37,2013-06-23 12:11:00,
2013-06-23 07:16:00,66.7,66.7,29.87,ESE,108,0.0,0.0,100,0.00,CLR,,0.16,0.0,WeatherDisplay:10.37,2013-06-23 12:16:00,
2013-06-23 07:21:00,66.9,66.9,29.87,ESE,108,0.0,0.0,100,0.00,CLR,,0.16,0.0,WeatherDisplay:10.37,2013-06-23 12:21:00,
2013-06-23 07:26:00,66.9,66.9,29.87,ESE,109,0.0,0.0,100,0.00,CLR,,0.16,0.0,WeatherDisplay:10.37,2013-06-23 12:26:00,
2013-06-23 07:31:00,67.1,67.1,29.87,ESE,108,0.0,0.0,100,0.00,CLR,,0.16,0.0,WeatherDisplay:10.37,2013-06-23 12:31:00,
2013-06-23 07:36:00,67.3,67.3,29.87,ESE,108,0.0,0.0,100,0.00,CLR,,0.16,0.0,WeatherDisplay:10.37,2013-06-23 12:36:00,
2013-06-23 07:41:00,67.3,67.3,29.87,West,273,0.0,0.0,100,0.00,CLR,,0.16,0.0,WeatherDisplay:10.37,2013-06-23 12:41:00,
2013-06-23 07:46:00,67.5,67.5,29.90,SSW,212,0.0,0.0,100,0.00,CLR,,0.16,0.0,WeatherDisplay:10.37,2013-06-23 12:46:00,
2013-06-23 07:51:00,67.5,67.5,29.90,SSW,205,2.3,0.0,100,0.00,CLR,,0.16,0.0,WeatherDisplay:10.37,2013-06-23 12:51:00,
2013-06-23 07:56:00,67.5,67.5,29.90,SSW,208,0.0,0.0,100,0.00,CLR,,0.16,0.0,WeatherDisplay:10.37,2013-06-23 12:56:00,
2013-06-23 08:01:00,67.5,67.5,29.90,SSW,207,0.0,0.0,100,0.00,CLR,,0.16,0.0,WeatherDisplay:10.37,2013-06-23 13:01:00,
2013-06-23 08:06:00,67.6,67.6,29.90,ESE,104,0.0,0.0,100,0.00,CLR,,0.16,0.0,WeatherDisplay:10.37,2013-06-23 13:06:00,
2013-06-23 08:11:00,67.8,67.8,29.90,SW,229,0.0,0.0,100,0.00,CLR,,0.16,0.0,WeatherDisplay:10.37,2013-06-23 13:11:00,
2013-06-23 08:16:00,68.0,68.0,29.93,SW,220,0.0,0.0,100,0.00,CLR,,0.16,0.0,WeatherDisplay:10.37,2013-06-23 13:16:00,
2013-06-23 08:21:00,68.2,68.2,29.93,SW,220,0.0,0.0,100,0.00,CLR,,0.16,0.0,WeatherDisplay:10.37,2013-06-23 13:21:00,
2013-06-23 08:26:00,68.4,68.4,29.93,SSW,204,0.0,0.0,100,0.00,CLR,,0.16,0.0,WeatherDisplay:10.37,2013-06-23 13:26:00,
2013-06-23 08:32:00,68.5,68.5,29.93,SSW,204,0.0,0.0,100,0.00,CLR,,0.16,0.0,WeatherDisplay:10.37,2013-06-23 13:32:00,
2013-06-23 08:37:00,68.7,68.7,29.93,SSW,204,0.0,0.0,100,0.00,CLR,,0.16,0.0,WeatherDisplay:10.37,2013-06-23 13:37:00,
2013-06-23 08:42:00,68.9,68.9,29.93,SSW,204,0.0,0.0,100,0.00,CLR,,0.16,0.0,WeatherDisplay:10.37,2013-06-23 13:42:00,
2013-06-23 08:47:00,69.1,69.1,29.93,SSW,204,0.0,0.0,100,0.00,CLR,,0.16,0.0,WeatherDisplay:10.37,2013-06-23 13:47:00,
2013-06-23 08:51:00,69.8,69.8,29.93,South,174,0.0,0.0,100,0.00,CLR,,0.16,0.0,WeatherDisplay:10.37,2013-06-23 13:51:00,
2013-06-23 08:56:00,70.3,70.3,29.93,South,174,0.0,0.0,100,0.00,CLR,,0.16,0.0,WeatherDisplay:10.37,2013-06-23 13:56:00,
2013-06-23 09:01:00,70.9,70.9,29.93,SW,223,3.5,0.0,100,0.00,FEW,,0.16,0.0,WeatherDisplay:10.37,2013-06-23 14:01:00,
2013-06-23 09:06:00,71.2,71.2,29.93,SW,234,4.6,4.6,100,0.00,FEW,,0.16,0.0,WeatherDisplay:10.37,2013-06-23 14:06:00,
2013-06-23 09:11:00,71.6,71.6,29.93,SSW,209,3.5,0.0,100,0.00,FEW,,0.16,0.0,WeatherDisplay:10.37,2013-06-23 14:11:00,
2013-06-23 09:16:00,72.0,71.7,29.93,SSE,168,4.6,4.6,99,0.00,FEW,,0.16,0.0,WeatherDisplay:10.37,2013-06-23 14:16:00,
2013-06-23 09:21:00,72.3,70.8,29.93,WSW,239,0.0,0.0,95,0.00,FEW,,0.16,0.0,WeatherDisplay:10.37,2013-06-23 14:21:00,
2013-06-23 09:26:00,72.7,70.5,29.93,WSW,237,4.6,0.0,93,0.00,FEW,,0.16,0.0,WeatherDisplay:10.37,2013-06-23 14:26:00,
2013-06-23 09:31:00,73.2,70.4,29.90,South,190,3.5,3.5,91,0.00,FEW,,0.16,0.0,WeatherDisplay:10.37,2013-06-23 14:31:00,
2013-06-23 09:36:00,73.6,69.8,29.90,SSW,212,5.8,0.0,88,0.00,FEW,,0.16,0.0,WeatherDisplay:10.37,2013-06-23 14:36:00,
2013-06-23 09:41:00,73.9,69.5,29.90,SW,234,2.3,0.0,86,0.00,FEW,,0.16,0.0,WeatherDisplay:10.37,2013-06-23 14:41:00,
2013-06-23 09:46:00,74.3,69.5,29.90,South,176,4.6,4.6,85,0.00,FEW,,0.16,0.0,WeatherDisplay:10.37,2013-06-23 14:46:00,
2013-06-23 09:51:00,74.7,68.4,29.90,WSW,238,6.9,6.9,81,0.00,FEW,,0.16,0.0,WeatherDisplay:10.37,2013-06-23 14:51:00,
2013-06-23 09:56:00,75.0,68.4,29.90,SW,233,6.9,6.9,80,0.00,FEW,,0.16,0.0,WeatherDisplay:10.37,2013-06-23 14:56:00,
2013-06-23 10:02:00,75.6,68.2,29.90,WSW,242,0.0,0.0,78,0.00,FEW,,0.16,0.0,WeatherDisplay:10.37,2013-06-23 15:02:00,
2013-06-23 10:07:00,76.1,68.7,29.90,South,184,0.0,0.0,78,0.00,FEW,,0.16,0.0,WeatherDisplay:10.37,2013-06-23 15:07:00,
2013-06-23 10:12:00,76.6,68.1,29.90,SSW,204,6.9,6.9,75,0.00,FEW,,0.16,0.0,WeatherDisplay:10.37,2013-06-23 15:12:00,
2013-06-23 10:17:00,77.2,68.2,29.90,SSE,160,6.9,0.0,74,0.00,FEW,,0.16,0.0,WeatherDisplay:10.37,2013-06-23 15:17:00,
2013-06-23 10:22:00,77.7,68.4,29.90,WSW,244,5.8,5.8,73,0.00,CLR,,0.16,0.0,WeatherDisplay:10.37,2013-06-23 15:22:00,
2013-06-23 10:27:00,78.3,67.7,29.90,SSW,200,8.1,8.1,70,0.00,CLR,,0.16,0.0,WeatherDisplay:10.37,2013-06-23 15:27:00,
2013-06-23 10:32:00,79.0,67.9,29.90,WSW,245,5.8,5.8,69,0.00,CLR,,0.16,0.0,WeatherDisplay:10.37,2013-06-23 15:32:00,
2013-06-23 10:36:00,79.5,67.6,29.90,SSW,202,8.1,8.1,67,0.00,CLR,,0.16,0.0,WeatherDisplay:10.37,2013-06-23 15:36:00,
2013-06-23 10:41:00,79.9,67.1,29.90,SSW,208,13.8,13.8,65,0.00,CLR,,0.16,0.0,WeatherDisplay:10.37,2013-06-23 15:41:00,
2013-06-23 10:46:00,79.9,66.6,29.90,South,186,9.2,9.2,64,0.00,CLR,,0.16,0.0,WeatherDisplay:10.37,2013-06-23 15:46:00,
2013-06-23 10:51:00,80.2,67.4,29.90,SSW,203,6.9,6.9,65,0.00,CLR,,0.16,0.0,WeatherDisplay:10.37,2013-06-23 15:51:00,
2013-06-23 10:57:00,81.0,67.6,29.90,SW,227,10.4,10.4,64,0.00,CLR,,0.16,0.0,WeatherDisplay:10.37,2013-06-23 15:57:00,
2013-06-23 11:02:00,81.1,66.9,29.90,SW,217,8.1,8.1,62,0.00,SCT,,0.16,0.0,WeatherDisplay:10.37,2013-06-23 16:02:00,
2013-06-23 11:07:00,81.3,68.0,29.90,SSE,149,12.7,12.7,64,0.00,SCT,,0.16,0.0,WeatherDisplay:10.37,2013-06-23 16:07:00,
2013-06-23 11:12:00,81.9,67.1,29.90,SSW,192,6.9,6.9,61,0.00,SCT,,0.16,0.0,WeatherDisplay:10.37,2013-06-23 16:12:00,
2013-06-23 11:17:00,82.2,67.4,29.90,SSE,168,8.1,8.1,61,0.00,SCT,,0.16,0.0,WeatherDisplay:10.37,2013-06-23 16:17:00,
2013-06-23 11:22:00,82.4,66.6,29.90,SSW,209,13.8,13.8,59,0.00,SCT,,0.16,0.0,WeatherDisplay:10.37,2013-06-23 16:22:00,
2013-06-23 11:27:00,82.6,66.8,29.90,SSW,209,16.1,16.1,59,0.00,SCT,,0.16,0.0,WeatherDisplay:10.37,2013-06-23 16:27:00,
2013-06-23 11:32:00,82.6,67.3,29.90,South,187,11.5,11.5,60,0.00,SCT,,0.16,0.0,WeatherDisplay:10.37,2013-06-23 16:32:00,
2013-06-23 11:37:00,82.6,67.3,29.90,SW,226,10.4,10.4,60,0.00,SCT,,0.16,0.0,WeatherDisplay:10.37,2013-06-23 16:37:00,
2013-06-23 11:42:00,82.6,67.8,29.90,SW,228,10.4,10.4,61,0.00,SCT,,0.16,0.0,WeatherDisplay:10.37,2013-06-23 16:42:00,
2013-06-23 11:47:00,82.8,68.4,29.90,South,189,11.5,11.5,62,0.00,SCT,,0.16,0.0,WeatherDisplay:10.37,2013-06-23 16:47:00,
2013-06-23 11:52:00,83.3,68.9,29.90,SSW,210,10.4,10.4,62,0.00,SCT,,0.16,0.0,WeatherDisplay:10.37,2013-06-23 16:52:00,
2013-06-23 11:57:00,83.3,68.9,29.90,SE,145,16.1,16.1,62,0.00,SCT,,0.16,0.0,WeatherDisplay:10.37,2013-06-23 16:57:00,
2013-06-23 12:03:00,83.5,69.6,29.90,SSE,162,12.7,12.7,63,0.00,FEW,,0.16,0.0,WeatherDisplay:10.37,2013-06-23 17:03:00,
2013-06-23 12:08:00,83.7,70.2,29.90,SE,141,8.1,8.1,64,0.00,FEW,,0.16,0.0,WeatherDisplay:10.37,2013-06-23 17:08:00,
2013-06-23 12:13:00,83.8,69.9,29.90,South,188,11.5,11.5,63,0.00,FEW,,0.16,0.0,WeatherDisplay:10.37,2013-06-23 17:13:00,
2013-06-23 12:18:00,82.9,68.6,29.90,SSW,208,12.7,12.7,62,0.00,FEW,,0.16,0.0,WeatherDisplay:10.37,2013-06-23 17:18:00,
2013-06-23 12:23:00,81.9,68.5,29.90,WSW,244,11.5,11.5,64,0.00,FEW,,0.16,0.0,WeatherDisplay:10.37,2013-06-23 17:23:00,
2013-06-23 12:28:00,81.0,68.5,29.90,SW,233,10.4,10.4,66,0.00,FEW,,0.16,0.0,WeatherDisplay:10.37,2013-06-23 17:28:00,
2013-06-23 12:33:00,81.0,69.0,29.87,WSW,252,11.5,11.5,67,0.00,FEW,,0.16,0.0,WeatherDisplay:10.37,2013-06-23 17:33:00,
2013-06-23 12:38:00,81.3,69.3,29.87,South,180,11.5,11.5,67,0.00,FEW,,0.16,0.0,WeatherDisplay:10.37,2013-06-23 17:38:00,
2013-06-23 12:43:00,81.3,69.7,29.87,South,191,13.8,13.8,68,0.00,FEW,,0.16,0.0,WeatherDisplay:10.37,2013-06-23 17:43:00,
2013-06-23 12:48:00,81.1,69.1,29.87,SSW,203,15.0,15.0,67,0.00,FEW,,0.16,0.0,WeatherDisplay:10.37,2013-06-23 17:48:00,
2013-06-23 12:53:00,81.1,69.1,29.87,SW,219,16.1,16.1,67,0.00,FEW,,0.16,0.0,WeatherDisplay:10.37,2013-06-23 17:53:00,
2013-06-23 12:58:00,82.0,70.4,29.87,WSW,240,9.2,9.2,68,0.00,FEW,,0.16,0.0,WeatherDisplay:10.37,2013-06-23 17:58:00,
2013-06-23 13:03:00,82.4,69.9,29.87,WSW,239,11.5,11.5,66,0.00,SCT,,0.16,0.0,WeatherDisplay:10.37,2013-06-23 18:03:00,
2013-06-23 13:07:00,82.6,69.6,29.87,South,176,16.1,16.1,65,0.00,SCT,,0.16,0.0,WeatherDisplay:10.37,2013-06-23 18:07:00,
2013-06-23 13:13:00,82.6,69.6,29.87,WSW,240,15.0,15.0,65,0.00,SCT,,0.16,0.0,WeatherDisplay:10.37,2013-06-23 18:13:00,
2013-06-23 13:18:00,82.6,69.6,29.87,SSW,209,11.5,11.5,65,0.00,SCT,,0.16,0.0,WeatherDisplay:10.37,2013-06-23 18:18:00,
2013-06-23 13:23:00,83.1,69.7,29.87,South,190,16.1,16.1,64,0.00,SCT,,0.16,0.0,WeatherDisplay:10.37,2013-06-23 18:23:00,
2013-06-23 13:28:00,84.0,70.1,29.87,SSW,213,16.1,16.1,63,0.00,SCT,,0.16,0.0,WeatherDisplay:10.37,2013-06-23 18:28:00,
2013-06-23 13:33:00,84.2,69.3,29.87,WSW,241,13.8,13.8,61,0.00,SCT,,0.16,0.0,WeatherDisplay:10.37,2013-06-23 18:33:00,
2013-06-23 13:38:00,84.4,69.9,29.87,South,181,13.8,13.8,62,0.00,SCT,,0.16,0.0,WeatherDisplay:10.37,2013-06-23 18:38:00,
2013-06-23 13:43:00,84.4,69.9,29.87,South,184,6.9,6.9,62,0.00,SCT,,0.16,0.0,WeatherDisplay:10.37,2013-06-23 18:43:00,
2013-06-23 13:48:00,84.2,68.8,29.84,South,176,8.1,8.1,60,0.00,SCT,,0.16,0.0,WeatherDisplay:10.37,2013-06-23 18:48:00,
2013-06-23 13:53:00,83.8,69.0,29.84,South,176,5.8,5.8,61,0.00,SCT,,0.16,0.0,WeatherDisplay:10.37,2013-06-23 18:53:00,
2013-06-23 13:57:00,83.5,69.1,29.84,SW,221,9.2,9.2,62,0.00,SCT,,0.16,0.0,WeatherDisplay:10.37,2013-06-23 18:57:00,
2013-06-23 14:02:00,83.1,68.7,29.84,South,171,11.5,11.5,62,0.00,CLR,,0.16,0.0,WeatherDisplay:10.37,2013-06-23 19:02:00,
2013-06-23 14:07:00,82.9,69.5,29.84,SSW,206,5.8,5.8,64,0.00,CLR,,0.16,0.0,WeatherDisplay:10.37,2013-06-23 19:07:00,
2013-06-23 14:12:00,82.9,69.5,29.84,WSW,237,11.5,11.5,64,0.00,CLR,,0.16,0.0,WeatherDisplay:10.37,2013-06-23 19:12:00,
2013-06-23 14:17:00,83.1,70.1,29.84,South,187,11.5,11.5,65,0.00,CLR,,0.16,0.0,WeatherDisplay:10.37,2013-06-23 19:17:00,
2013-06-23 14:22:00,83.7,70.6,29.84,SSW,202,10.4,10.4,65,0.00,CLR,,0.16,0.0,WeatherDisplay:10.37,2013-06-23 19:22:00,
2013-06-23 14:27:00,84.2,70.7,29.84,SW,220,5.8,5.8,64,0.00,CLR,,0.16,0.0,WeatherDisplay:10.37,2013-06-23 19:27:00,
2013-06-23 14:32:00,84.6,70.6,29.84,SSW,210,12.7,12.7,63,0.00,CLR,,0.16,0.0,WeatherDisplay:10.37,2013-06-23 19:32:00,
2013-06-23 14:37:00,84.7,71.2,29.84,SSW,212,9.2,9.2,64,0.00,CLR,,0.16,0.0,WeatherDisplay:10.37,2013-06-23 19:37:00,
2013-06-23 14:42:00,84.7,70.3,29.84,SW,235,9.2,9.2,62,0.00,CLR,,0.16,0.0,WeatherDisplay:10.37,2013-06-23 19:42:00,
2013-06-23 14:47:00,84.7,70.7,29.84,SW,233,9.2,9.2,63,0.00,CLR,,0.16,0.0,WeatherDisplay:10.37,2013-06-23 19:47:00,
2013-06-23 14:52:00,84.7,70.3,29.84,SSE,148,9.2,9.2,62,0.00,CLR,,0.16,0.0,WeatherDisplay:10.37,2013-06-23 19:52:00,
2013-06-23 14:57:00,84.9,70.9,29.84,SE,140,11.5,11.5,63,0.00,CLR,,0.16,0.0,WeatherDisplay:10.37,2013-06-23 19:57:00,
2013-06-23 15:02:00,85.6,72.1,29.84,SW,232,9.2,9.2,64,0.00,CLR,,0.16,0.0,WeatherDisplay:10.37,2013-06-23 20:02:00,
2013-06-23 15:07:00,86.0,71.0,29.84,SW,216,10.4,10.4,61,0.00,CLR,,0.16,0.0,WeatherDisplay:10.37,2013-06-23 20:07:00,
2013-06-23 15:12:00,86.2,71.2,29.84,WSW,240,9.2,9.2,61,0.00,CLR,,0.16,0.0,WeatherDisplay:10.37,2013-06-23 20:12:00,
2013-06-23 15:17:00,86.0,70.5,29.84,SW,217,11.5,11.5,60,0.00,CLR,,0.16,0.0,WeatherDisplay:10.37,2013-06-23 20:17:00,
2013-06-23 15:22:00,85.8,70.3,29.84,SW,235,12.7,12.7,60,0.00,CLR,,0.16,0.0,WeatherDisplay:10.37,2013-06-23 20:22:00,
2013-06-23 15:27:00,85.5,69.5,29.84,SSW,213,12.7,12.7,59,0.00,CLR,,0.16,0.0,WeatherDisplay:10.37,2013-06-23 20:27:00,
2013-06-23 15:32:00,85.3,69.3,29.84,WSW,240,11.5,11.5,59,0.00,CLR,,0.16,0.0,WeatherDisplay:10.37,2013-06-23 20:32:00,
2013-06-23 15:37:00,85.1,68.7,29.84,SW,221,11.5,11.5,58,0.00,CLR,,0.16,0.0,WeatherDisplay:10.37,2013-06-23 20:37:00,
2013-06-23 15:42:00,85.3,69.8,29.84,SW,223,5.8,5.8,60,0.00,CLR,,0.16,0.0,WeatherDisplay:10.37,2013-06-23 20:42:00,
2013-06-23 15:47:00,85.5,69.0,29.84,WNW,285,10.4,10.4,58,0.00,CLR,,0.16,0.0,WeatherDisplay:10.37,2013-06-23 20:47:00,
2013-06-23 15:52:00,85.6,69.2,29.84,SW,217,13.8,13.8,58,0.00,CLR,,0.16,0.0,WeatherDisplay:10.37,2013-06-23 20:52:00,
2013-06-23 15:57:00,85.8,68.8,29.84,SW,221,11.5,11.5,57,0.00,CLR,,0.16,0.0,WeatherDisplay:10.37,2013-06-23 20:57:00,
2013-06-23 16:02:00,85.8,68.3,29.84,SSW,213,12.7,12.7,56,0.00,CLR,,0.16,0.0,WeatherDisplay:10.37,2013-06-23 21:02:00,
2013-06-23 16:07:00,85.5,67.4,29.84,South,190,11.5,11.5,55,0.00,CLR,,0.16,0.0,WeatherDisplay:10.37,2013-06-23 21:07:00,
2013-06-23 16:12:00,85.3,67.8,29.84,SSE,160,8.1,8.1,56,0.00,CLR,,0.16,0.0,WeatherDisplay:10.37,2013-06-23 21:12:00,
2013-06-23 16:17:00,85.1,66.6,29.84,WSW,241,9.2,9.2,54,0.00,CLR,,0.16,0.0,WeatherDisplay:10.37,2013-06-23 21:17:00,
2013-06-23 16:22:00,84.7,66.3,29.84,SW,224,10.4,10.4,54,0.00,CLR,,0.16,0.0,WeatherDisplay:10.37,2013-06-23 21:22:00,
2013-06-23 16:27:00,84.7,66.3,29.84,SSW,212,10.4,10.4,54,0.00,CLR,,0.16,0.0,WeatherDisplay:10.37,2013-06-23 21:27:00,
2013-06-23 16:32:00,84.9,66.4,29.84,South,175,10.4,10.4,54,0.00,CLR,,0.16,0.0,WeatherDisplay:10.37,2013-06-23 21:32:00,
2013-06-23 16:37:00,84.9,66.4,29.84,West,259,10.4,10.4,54,0.00,CLR,,0.16,0.0,WeatherDisplay:10.37,2013-06-23 21:37:00,
2013-06-23 16:42:00,84.9,66.9,29.84,South,183,15.0,15.0,55,0.00,CLR,,0.16,0.0,WeatherDisplay:10.37,2013-06-23 21:42:00,
2013-06-23 16:47:00,84.7,66.8,29.84,SSW,204,8.1,8.1,55,0.00,CLR,,0.16,0.0,WeatherDisplay:10.37,2013-06-23 21:47:00,
2013-06-23 16:52:00,84.9,66.9,29.84,SE,143,11.5,11.5,55,0.00,CLR,,0.16,0.0,WeatherDisplay:10.37,2013-06-23 21:52:00,
2013-06-23 16:57:00,84.7,66.3,29.84,WSW,241,10.4,10.4,54,0.00,CLR,,0.16,0.0,WeatherDisplay:10.37,2013-06-23 21:57:00,
2013-06-23 17:02:00,84.4,65.9,29.84,SW,234,13.8,13.8,54,0.00,FEW,,0.16,0.0,WeatherDisplay:10.37,2013-06-23 22:02:00,
2013-06-23 17:07:00,84.2,65.2,29.84,SW,229,10.4,10.4,53,0.00,FEW,,0.16,0.0,WeatherDisplay:10.37,2013-06-23 22:07:00,
2013-06-23 17:12:00,84.4,65.4,29.84,SW,230,16.1,16.1,53,0.00,FEW,,0.16,0.0,WeatherDisplay:10.37,2013-06-23 22:12:00,
2013-06-23 17:17:00,84.4,63.7,29.84,WSW,250,11.5,11.5,50,0.00,FEW,,0.16,0.0,WeatherDisplay:10.37,2013-06-23 22:17:00,
2013-06-23 17:22:00,84.4,63.7,29.84,SW,236,12.7,12.7,50,0.00,FEW,,0.16,0.0,WeatherDisplay:10.37,2013-06-23 22:22:00,
2013-06-23 17:27:00,84.2,64.1,29.84,SW,233,11.5,11.5,51,0.00,FEW,,0.16,0.0,WeatherDisplay:10.37,2013-06-23 22:27:00,
2013-06-23 17:32:00,83.8,65.4,29.84,SSW,202,10.4,10.4,54,0.00,FEW,,0.16,0.0,WeatherDisplay:10.37,2013-06-23 22:32:00,
2013-06-23 17:37:00,83.7,64.2,29.84,WSW,253,12.7,12.7,52,0.00,FEW,,0.16,0.0,WeatherDisplay:10.37,2013-06-23 22:37:00,
2013-06-23 17:42:00,83.8,64.9,29.84,SW,214,10.4,10.4,53,0.00,FEW,,0.16,0.0,WeatherDisplay:10.37,2013-06-23 22:42:00,
2013-06-23 17:47:00,84.0,65.6,29.84,South,188,11.5,11.5,54,0.00,FEW,,0.16,0.0,WeatherDisplay:10.37,2013-06-23 22:47:00,
2013-06-23 17:52:00,84.0,65.6,29.84,SW,236,11.5,11.5,54,0.00,FEW,,0.16,0.0,WeatherDisplay:10.37,2013-06-23 22:52:00,
2013-06-23 17:57:00,84.4,65.9,29.84,SW,225,11.5,11.5,54,0.00,FEW,,0.16,0.0,WeatherDisplay:10.37,2013-06-23 22:57:00,
2013-06-23 18:02:00,84.6,65.5,29.84,SW,220,8.1,8.1,53,0.00,CLR,,0.16,0.0,WeatherDisplay:10.37,2013-06-23 23:02:00,
2013-06-23 18:07:00,84.7,65.7,29.84,SW,234,11.5,11.5,53,0.00,CLR,,0.16,0.0,WeatherDisplay:10.37,2013-06-23 23:07:00,
2013-06-23 18:12:00,84.6,65.0,29.84,South,178,11.5,11.5,52,0.00,CLR,,0.16,0.0,WeatherDisplay:10.37,2013-06-23 23:12:00,
2013-06-23 18:17:00,84.2,64.1,29.84,SW,228,9.2,9.2,51,0.00,CLR,,0.16,0.0,WeatherDisplay:10.37,2013-06-23 23:17:00,
2013-06-23 18:22:00,83.8,63.8,29.84,West,276,9.2,9.2,51,0.00,CLR,,0.16,0.0,WeatherDisplay:10.37,2013-06-23 23:22:00,
2013-06-23 18:27:00,83.3,64.4,29.84,SW,222,8.1,8.1,53,0.00,CLR,,0.16,0.0,WeatherDisplay:10.37,2013-06-23 23:27:00,
2013-06-23 18:32:00,83.3,64.9,29.84,SW,231,6.9,6.9,54,0.00,CLR,,0.16,0.0,WeatherDisplay:10.37,2013-06-23 23:32:00,
2013-06-23 18:37:00,83.8,65.4,29.84,SW,219,8.1,8.1,54,0.00,CLR,,0.16,0.0,WeatherDisplay:10.37,2013-06-23 23:37:00,
2013-06-23 18:42:00,84.0,66.1,29.84,West,276,5.8,5.8,55,0.00,CLR,,0.16,0.0,WeatherDisplay:10.37,2013-06-23 23:42:00,
2013-06-23 18:47:00,84.2,65.8,29.84,SW,220,8.1,8.1,54,0.00,CLR,,0.16,0.0,WeatherDisplay:10.37,2013-06-23 23:47:00,
2013-06-23 18:52:00,83.8,65.9,29.84,SSW,202,6.9,6.9,55,0.00,CLR,,0.16,0.0,WeatherDisplay:10.37,2013-06-23 23:52:00,
2013-06-23 18:57:00,83.3,65.4,29.84,SSW,205,10.4,10.4,55,0.00,CLR,,0.16,0.0,WeatherDisplay:10.37,2013-06-23 23:57:00,
2013-06-23 19:02:00,82.8,65.5,29.87,SSW,213,6.9,6.9,56,0.00,CLR,,0.16,0.0,WeatherDisplay:10.37,2013-06-24 00:02:00,
2013-06-23 19:07:00,82.4,65.1,29.87,SSW,206,5.8,5.8,56,0.00,CLR,,0.16,0.0,WeatherDisplay:10.37,2013-06-24 00:07:00,
2013-06-23 19:12:00,81.9,65.1,29.87,SSW,206,5.8,5.8,57,0.00,CLR,,0.16,0.0,WeatherDisplay:10.37,2013-06-24 00:12:00,
2013-06-23 19:17:00,81.5,64.8,29.87,SW,231,6.9,6.9,57,0.00,CLR,,0.16,0.0,WeatherDisplay:10.37,2013-06-24 00:17:00,
2013-06-23 19:22:00,81.1,64.5,29.87,SW,219,4.6,4.6,57,0.00,CLR,,0.16,0.0,WeatherDisplay:10.37,2013-06-24 00:22:00,
2013-06-23 19:27:00,80.8,64.6,29.87,SW,228,5.8,5.8,58,0.00,CLR,,0.16,0.0,WeatherDisplay:10.37,2013-06-24 00:27:00,
2013-06-23 19:32:00,80.6,64.5,29.87,SSW,199,5.8,5.8,58,0.00,CLR,,0.16,0.0,WeatherDisplay:10.37,2013-06-24 00:32:00,
2013-06-23 19:37:00,80.4,64.8,29.87,SSE,158,6.9,6.9,59,0.00,CLR,,0.16,0.0,WeatherDisplay:10.37,2013-06-24 00:37:00,
2013-06-23 19:42:00,80.1,64.4,29.87,SSW,212,6.9,6.9,59,0.00,CLR,,0.16,0.0,WeatherDisplay:10.37,2013-06-24 00:42:00,
2013-06-23 19:47:00,79.7,64.1,29.87,WSW,249,5.8,5.8,59,0.00,CLR,,0.16,0.0,WeatherDisplay:10.37,2013-06-24 00:47:00,
2013-06-23 19:52:00,79.5,64.4,29.87,SW,214,3.5,3.6,60,0.00,CLR,,0.16,0.0,WeatherDisplay:10.37,2013-06-24 00:52:00,
2013-06-23 19:57:00,79.2,64.1,29.87,SW,235,4.6,4.6,60,0.00,CLR,,0.16,0.0,WeatherDisplay:10.37,2013-06-24 00:57:00,
2013-06-23 20:02:00,78.8,64.2,29.87,South,190,3.5,3.5,61,0.00,CLR,,0.16,0.0,WeatherDisplay:10.37,2013-06-24 01:02:00,
2013-06-23 20:07:00,78.6,64.5,29.87,South,186,4.6,4.6,62,0.00,CLR,,0.16,0.0,WeatherDisplay:10.37,2013-06-24 01:07:00,
2013-06-23 20:12:00,78.3,64.6,29.87,SW,220,6.9,6.9,63,0.00,CLR,,0.16,0.0,WeatherDisplay:10.37,2013-06-24 01:12:00,
2013-06-23 20:17:00,77.9,64.3,29.87,SW,228,5.8,5.8,63,0.00,CLR,,0.16,0.0,WeatherDisplay:10.37,2013-06-24 01:17:00,
2013-06-23 20:22:00,77.7,64.6,29.87,SW,220,3.5,3.5,64,0.00,CLR,,0.16,0.0,WeatherDisplay:10.37,2013-06-24 01:22:00,
2013-06-23 20:27:00,77.2,64.1,29.87,SSW,203,3.5,3.5,64,0.00,CLR,,0.16,0.0,WeatherDisplay:10.37,2013-06-24 01:27:00,
2013-06-23 20:32:00,76.8,64.2,29.87,South,190,4.6,4.6,65,0.00,CLR,,0.16,0.0,WeatherDisplay:10.37,2013-06-24 01:32:00,
2013-06-23 20:37:00,76.5,63.8,29.87,SW,214,4.3,4.3,65,0.00,CLR,,0.16,0.0,WeatherDisplay:10.37,2013-06-24 01:37:00,
2013-06-23 20:42:00,76.3,64.1,29.87,SSW,207,5.8,5.8,66,0.00,CLR,,0.16,0.0,WeatherDisplay:10.37,2013-06-24 01:42:00,
2013-06-23 20:47:00,75.9,63.7,29.87,South,173,0.0,0.0,66,0.00,CLR,,0.16,0.0,WeatherDisplay:10.37,2013-06-24 01:47:00,
2013-06-23 20:52:00,75.7,63.6,29.87,SW,218,4.6,4.6,66,0.00,CLR,,0.16,0.0,WeatherDisplay:10.37,2013-06-24 01:52:00,
2013-06-23 20:57:00,75.4,63.7,29.87,SSW,213,3.5,3.5,67,0.00,CLR,,0.16,0.0,WeatherDisplay:10.37,2013-06-24 01:57:00,
2013-06-23 21:02:00,75.0,63.7,29.90,WSW,239,3.5,3.5,68,0.00,CLR,,0.16,0.0,WeatherDisplay:10.37,2013-06-24 02:02:00,
2013-06-23 21:07:00,74.7,63.4,29.90,SW,227,2.3,2.7,68,0.00,CLR,,0.16,0.0,WeatherDisplay:10.37,2013-06-24 02:07:00,
2013-06-23 21:12:00,74.3,63.5,29.90,SSW,205,4.6,4.6,69,0.00,CLR,,0.16,0.0,WeatherDisplay:10.37,2013-06-24 02:12:00,
2013-06-23 21:17:00,73.9,63.5,29.90,SSW,200,3.5,3.5,70,0.00,CLR,,0.16,0.0,WeatherDisplay:10.37,2013-06-24 02:17:00,
2013-06-23 21:22:00,73.8,63.8,29.90,South,190,3.5,3.5,71,0.00,CLR,,0.16,0.0,WeatherDisplay:10.37,2013-06-24 02:22:00,
2013-06-23 21:27:00,73.4,63.4,29.90,SSW,208,2.3,0.0,71,0.00,CLR,,0.16,0.0,WeatherDisplay:10.37,2013-06-24 02:27:00,
2013-06-23 21:32:00,73.0,63.9,29.87,SW,218,3.5,3.5,73,0.00,CLR,,0.16,0.0,WeatherDisplay:10.37,2013-06-24 02:32:00,
2013-06-23 21:37:00,72.9,64.1,29.87,SSW,211,4.6,4.6,74,0.00,CLR,,0.16,0.0,WeatherDisplay:10.37,2013-06-24 02:37:00,
2013-06-23 21:42:00,72.5,63.7,29.87,SW,222,3.5,3.5,74,0.00,CLR,,0.16,0.0,WeatherDisplay:10.37,2013-06-24 02:42:00,
2013-06-23 21:47:00,72.3,63.9,29.90,SW,222,2.3,0.0,75,0.00,CLR,,0.16,0.0,WeatherDisplay:10.37,2013-06-24 02:47:00,
2013-06-23 21:52:00,72.1,64.2,29.90,SW,219,3.5,0.0,76,0.00,CLR,,0.16,0.0,WeatherDisplay:10.37,2013-06-24 02:52:00,
2013-06-23 21:57:00,72.0,64.0,29.90,SSW,207,3.5,3.5,76,0.00,CLR,,0.16,0.0,WeatherDisplay:10.37,2013-06-24 02:57:00,
2013-06-23 22:02:00,71.8,64.2,29.90,SW,223,3.5,0.0,77,0.00,CLR,,0.16,0.0,WeatherDisplay:10.37,2013-06-24 03:02:00,
2013-06-23 22:07:00,71.6,64.4,29.90,SW,221,0.0,0.0,78,0.00,CLR,,0.16,0.0,WeatherDisplay:10.37,2013-06-24 03:07:00,
2013-06-23 22:12:00,71.4,64.2,29.90,SW,222,2.3,0.0,78,0.00,CLR,,0.16,0.0,WeatherDisplay:10.37,2013-06-24 03:12:00,
2013-06-23 22:17:00,71.4,64.6,29.90,SW,220,0.0,0.0,79,0.00,CLR,,0.16,0.0,WeatherDisplay:10.37,2013-06-24 03:17:00,
2013-06-23 22:22:00,71.2,64.4,29.90,SSW,209,0.0,0.0,79,0.00,CLR,,0.16,0.0,WeatherDisplay:10.37,2013-06-24 03:22:00,
2013-06-23 22:27:00,71.2,64.8,29.90,SSW,209,0.0,0.0,80,0.00,CLR,,0.16,0.0,WeatherDisplay:10.37,2013-06-24 03:27:00,
2013-06-23 22:32:00,70.9,64.8,29.90,SSW,209,0.0,0.0,81,0.00,CLR,,0.16,0.0,WeatherDisplay:10.37,2013-06-24 03:32:00,
2013-06-23 22:37:00,70.7,64.6,29.90,SSW,209,0.0,0.0,81,0.00,CLR,,0.16,0.0,WeatherDisplay:10.37,2013-06-24 03:37:00,
2013-06-23 22:42:00,70.7,64.9,29.90,SSW,209,0.0,0.0,82,0.00,CLR,,0.16,0.0,WeatherDisplay:10.37,2013-06-24 03:42:00,
2013-06-23 22:47:00,70.5,65.1,29.90,SSW,209,0.0,0.0,83,0.00,CLR,,0.16,0.0,WeatherDisplay:10.37,2013-06-24 03:47:00,
2013-06-23 22:52:00,70.5,65.4,29.90,SSW,209,0.0,0.0,84,0.00,CLR,,0.16,0.0,WeatherDisplay:10.37,2013-06-24 03:52:00,
2013-06-23 22:57:00,70.3,65.3,29.90,SSW,209,0.0,0.0,84,0.00,CLR,,0.16,0.0,WeatherDisplay:10.37,2013-06-24 03:57:00,
2013-06-23 23:01:00,70.2,65.4,29.90,SSW,209,0.0,0.0,85,0.00,CLR,,0.16,0.0,WeatherDisplay:10.37,2013-06-24 04:01:00,
2013-06-23 23:06:00,70.0,65.6,29.90,SSW,209,0.0,0.0,86,0.00,CLR,,0.16,0.0,WeatherDisplay:10.37,2013-06-24 04:06:00,
2013-06-23 23:12:00,70.0,65.6,29.90,SSW,209,0.0,0.0,86,0.00,CLR,,0.16,0.0,WeatherDisplay:10.37,2013-06-24 04:12:00,
2013-06-23 23:16:00,69.8,65.8,29.90,SSW,209,0.0,0.0,87,0.00,CLR,,0.16,0.0,WeatherDisplay:10.37,2013-06-24 04:16:00,
2013-06-23 23:21:00,69.8,65.8,29.90,SW,231,2.3,2.3,87,0.00,CLR,,0.16,0.0,WeatherDisplay:10.37,2013-06-24 04:21:00,
2013-06-23 23:26:00,69.6,65.9,29.90,SW,231,0.0,0.0,88,0.00,CLR,,0.16,0.0,WeatherDisplay:10.37,2013-06-24 04:26:00,
2013-06-23 23:31:00,69.6,66.2,29.93,SW,231,0.0,0.0,89,0.00,CLR,,0.16,0.0,WeatherDisplay:10.37,2013-06-24 04:31:00,
2013-06-23 23:36:00,69.4,66.1,29.93,SSW,212,0.0,0.0,89,0.00,CLR,,0.16,0.0,WeatherDisplay:10.37,2013-06-24 04:36:00,
2013-06-23 23:41:00,69.4,66.1,29.93,SW,218,0.0,0.0,89,0.00,CLR,,0.16,0.0,WeatherDisplay:10.37,2013-06-24 04:41:00,
2013-06-23 23:46:00,69.4,66.4,29.93,WSW,241,2.3,0.0,90,0.00,CLR,,0.16,0.0,WeatherDisplay:10.37,2013-06-24 04:46:00,
2013-06-23 23:51:00,69.4,66.4,29.93,SSW,205,2.3,0.0,90,0.00,CLR,,0.16,0.0,WeatherDisplay:10.37,2013-06-24 04:51:00,
2013-06-23 23:56:00,69.4,66.7,29.93,SW,227,0.0,0.0,91,0.00,CLR,,0.16,0.0,WeatherDisplay:10.37,2013-06-24 04:56:00,